sensor_id;sensor_type;location;lat;lon;timestamp;temperature;humidity
4904;DHT22;2467;48.142;11.616;2023-08-17T00:00:18;22.70;99.90
4904;DHT22;2467;48.142;11.616;2023-08-17T00:00:51;22.70;99.90
4904;DHT22;2467;48.142;11.616;2023-08-17T00:01:23;22.70;99.90
4904;DHT22;2467;48.142;11.616;2023-08-17T00:01:55;22.70;99.90
4904;DHT22;2467;48.142;11.616;2023-08-17T00:02:27;22.70;99.90
4904;DHT22;2467;48.142;11.616;2023-08-17T00:03:00;22.70;99.90
4904;DHT22;2467;48.142;11.616;2023-08-17T00:03:31;22.70;99.90
4904;DHT22;2467;48.142;11.616;2023-08-17T00:04:03;22.70;99.90
4904;DHT22;2467;48.142;11.616;2023-08-17T00:04:35;22.70;99.90
4904;DHT22;2467;48.142;11.616;2023-08-17T00:05:08;22.60;99.90
4904;DHT22;2467;48.142;11.616;2023-08-17T00:05:40;22.60;99.90
4904;DHT22;2467;48.142;11.616;2023-08-17T00:06:12;22.60;99.90
4904;DHT22;2467;48.142;11.616;2023-08-17T00:06:45;22.60;99.90
4904;DHT22;2467;48.142;11.616;2023-08-17T00:07:18;22.60;99.90
4904;DHT22;2467;48.142;11.616;2023-08-17T00:07:50;22.50;99.90
4904;DHT22;2467;48.142;11.616;2023-08-17T00:08:22;22.50;99.90
4904;DHT22;2467;48.142;11.616;2023-08-17T00:08:55;22.50;99.90
4904;DHT22;2467;48.142;11.616;2023-08-17T00:09:27;22.50;99.90
4904;DHT22;2467;48.142;11.616;2023-08-17T00:09:59;22.50;99.90
4904;DHT22;2467;48.142;11.616;2023-08-17T00:10:31;22.40;99.90
4904;DHT22;2467;48.142;11.616;2023-08-17T00:11:04;22.40;99.90
4904;DHT22;2467;48.142;11.616;2023-08-17T00:11:36;22.40;99.90
4904;DHT22;2467;48.142;11.616;2023-08-17T00:12:08;22.40;99.90
4904;DHT22;2467;48.142;11.616;2023-08-17T00:12:41;22.40;99.90
4904;DHT22;2467;48.142;11.616;2023-08-17T00:13:14;22.30;99.90
4904;DHT22;2467;48.142;11.616;2023-08-17T00:13:46;22.30;99.90
4904;DHT22;2467;48.142;11.616;2023-08-17T00:14:18;22.30;99.90
4904;DHT22;2467;48.142;11.616;2023-08-17T00:14:51;22.30;99.90
4904;DHT22;2467;48.142;11.616;2023-08-17T00:15:23;22.30;99.90
4904;DHT22;2467;48.142;11.616;2023-08-17T00:15:55;22.20;99.90
4904;DHT22;2467;48.142;11.616;2023-08-17T00:16:26;22.20;99.90
4904;DHT22;2467;48.142;11.616;2023-08-17T00:16:59;22.20;99.90
4904;DHT22;2467;48.142;11.616;2023-08-17T00:17:31;22.20;99.90
4904;DHT22;2467;48.142;11.616;2023-08-17T00:18:04;22.30;99.90
4904;DHT22;2467;48.142;11.616;2023-08-17T00:18:37;22.20;99.90
4904;DHT22;2467;48.142;11.616;2023-08-17T00:19:08;22.20;99.90
4904;DHT22;2467;48.142;11.616;2023-08-17T00:19:40;22.20;99.90
4904;DHT22;2467;48.142;11.616;2023-08-17T00:20:12;22.20;99.90
4904;DHT22;2467;48.142;11.616;2023-08-17T00:20:45;22.20;99.90
4904;DHT22;2467;48.142;11.616;2023-08-17T00:21:17;22.20;99.90
4904;DHT22;2467;48.142;11.616;2023-08-17T00:21:51;22.20;99.90
4904;DHT22;2467;48.142;11.616;2023-08-17T00:22:24;22.20;99.90
4904;DHT22;2467;48.142;11.616;2023-08-17T00:22:56;22.20;99.90
4904;DHT22;2467;48.142;11.616;2023-08-17T00:23:28;22.20;99.90
4904;DHT22;2467;48.142;11.616;2023-08-17T00:24:00;22.20;99.90
4904;DHT22;2467;48.142;11.616;2023-08-17T00:24:32;22.20;99.90
4904;DHT22;2467;48.142;11.616;2023-08-17T00:25:05;22.20;99.90
4904;DHT22;2467;48.142;11.616;2023-08-17T00:25:37;22.20;99.90
4904;DHT22;2467;48.142;11.616;2023-08-17T00:26:09;22.20;99.90
4904;DHT22;2467;48.142;11.616;2023-08-17T00:26:41;22.20;99.90
4904;DHT22;2467;48.142;11.616;2023-08-17T00:27:14;22.20;99.90
4904;DHT22;2467;48.142;11.616;2023-08-17T00:27:46;22.20;99.90
4904;DHT22;2467;48.142;11.616;2023-08-17T00:28:19;22.20;99.90
4904;DHT22;2467;48.142;11.616;2023-08-17T00:28:51;22.10;99.90
4904;DHT22;2467;48.142;11.616;2023-08-17T00:29:24;22.10;99.90
4904;DHT22;2467;48.142;11.616;2023-08-17T00:29:56;22.10;99.90
4904;DHT22;2467;48.142;11.616;2023-08-17T00:30:28;22.10;99.90
4904;DHT22;2467;48.142;11.616;2023-08-17T00:30:59;22.10;99.90
4904;DHT22;2467;48.142;11.616;2023-08-17T00:31:32;22.10;99.90
4904;DHT22;2467;48.142;11.616;2023-08-17T00:32:05;22.10;99.90
4904;DHT22;2467;48.142;11.616;2023-08-17T00:32:37;22.10;99.90
4904;DHT22;2467;48.142;11.616;2023-08-17T00:33:09;22.00;99.90
4904;DHT22;2467;48.142;11.616;2023-08-17T00:33:42;22.00;99.90
4904;DHT22;2467;48.142;11.616;2023-08-17T00:34:14;22.00;99.90
4904;DHT22;2467;48.142;11.616;2023-08-17T00:34:45;22.00;99.90
4904;DHT22;2467;48.142;11.616;2023-08-17T00:35:17;22.10;99.90
4904;DHT22;2467;48.142;11.616;2023-08-17T00:35:50;22.00;99.90
4904;DHT22;2467;48.142;11.616;2023-08-17T00:36:22;22.10;99.90
4904;DHT22;2467;48.142;11.616;2023-08-17T00:36:54;22.00;99.90
4904;DHT22;2467;48.142;11.616;2023-08-17T00:37:26;22.10;99.90
4904;DHT22;2467;48.142;11.616;2023-08-17T00:37:59;22.10;99.90
4904;DHT22;2467;48.142;11.616;2023-08-17T00:38:32;22.10;99.90
4904;DHT22;2467;48.142;11.616;2023-08-17T00:39:04;22.00;99.90
4904;DHT22;2467;48.142;11.616;2023-08-17T00:39:37;22.00;99.90
4904;DHT22;2467;48.142;11.616;2023-08-17T00:40:10;22.00;99.90
4904;DHT22;2467;48.142;11.616;2023-08-17T00:40:42;22.00;99.90
4904;DHT22;2467;48.142;11.616;2023-08-17T00:41:14;22.00;99.90
4904;DHT22;2467;48.142;11.616;2023-08-17T00:41:46;22.00;99.90
4904;DHT22;2467;48.142;11.616;2023-08-17T00:42:18;22.00;99.90
4904;DHT22;2467;48.142;11.616;2023-08-17T00:42:50;22.00;99.90
4904;DHT22;2467;48.142;11.616;2023-08-17T00:43:24;22.00;99.90
4904;DHT22;2467;48.142;11.616;2023-08-17T00:43:57;22.00;99.90
4904;DHT22;2467;48.142;11.616;2023-08-17T00:44:29;22.00;99.90
4904;DHT22;2467;48.142;11.616;2023-08-17T00:45:01;22.00;99.90
4904;DHT22;2467;48.142;11.616;2023-08-17T00:45:34;22.00;99.90
4904;DHT22;2467;48.142;11.616;2023-08-17T00:46:08;22.00;99.90
4904;DHT22;2467;48.142;11.616;2023-08-17T00:46:40;22.00;99.90
4904;DHT22;2467;48.142;11.616;2023-08-17T00:47:11;21.90;99.90
4904;DHT22;2467;48.142;11.616;2023-08-17T00:47:43;21.90;99.90
4904;DHT22;2467;48.142;11.616;2023-08-17T00:48:15;21.90;99.90
4904;DHT22;2467;48.142;11.616;2023-08-17T00:48:48;21.90;99.90
4904;DHT22;2467;48.142;11.616;2023-08-17T00:49:20;21.90;99.90
4904;DHT22;2467;48.142;11.616;2023-08-17T00:49:53;21.90;99.90
4904;DHT22;2467;48.142;11.616;2023-08-17T00:50:25;21.90;99.90
4904;DHT22;2467;48.142;11.616;2023-08-17T00:51:00;21.90;99.90
4904;DHT22;2467;48.142;11.616;2023-08-17T00:51:33;21.90;99.90
4904;DHT22;2467;48.142;11.616;2023-08-17T00:52:05;21.90;99.90
4904;DHT22;2467;48.142;11.616;2023-08-17T00:52:38;21.90;99.90
4904;DHT22;2467;48.142;11.616;2023-08-17T00:53:11;21.90;99.90
4904;DHT22;2467;48.142;11.616;2023-08-17T00:53:45;21.90;99.90
4904;DHT22;2467;48.142;11.616;2023-08-17T00:54:23;21.90;99.90
4904;DHT22;2467;48.142;11.616;2023-08-17T00:54:57;21.90;99.90
4904;DHT22;2467;48.142;11.616;2023-08-17T00:55:29;21.90;99.90
4904;DHT22;2467;48.142;11.616;2023-08-17T00:56:02;21.90;99.90
4904;DHT22;2467;48.142;11.616;2023-08-17T00:56:35;21.90;99.90
4904;DHT22;2467;48.142;11.616;2023-08-17T00:57:09;21.90;99.90
4904;DHT22;2467;48.142;11.616;2023-08-17T00:57:41;21.90;99.90
4904;DHT22;2467;48.142;11.616;2023-08-17T00:58:14;21.90;99.90
4904;DHT22;2467;48.142;11.616;2023-08-17T00:58:49;21.90;99.90
4904;DHT22;2467;48.142;11.616;2023-08-17T00:59:21;22.00;99.90
4904;DHT22;2467;48.142;11.616;2023-08-17T00:59:53;22.00;99.90
4904;DHT22;2467;48.142;11.616;2023-08-17T01:00:36;22.00;99.90
4904;DHT22;2467;48.142;11.616;2023-08-17T01:01:09;22.00;99.90
4904;DHT22;2467;48.142;11.616;2023-08-17T01:01:42;22.00;99.90
4904;DHT22;2467;48.142;11.616;2023-08-17T01:02:14;22.00;99.90
4904;DHT22;2467;48.142;11.616;2023-08-17T01:02:47;22.00;99.90
4904;DHT22;2467;48.142;11.616;2023-08-17T01:03:20;22.00;99.90
4904;DHT22;2467;48.142;11.616;2023-08-17T01:03:53;22.00;99.90
4904;DHT22;2467;48.142;11.616;2023-08-17T01:04:25;22.00;99.90
4904;DHT22;2467;48.142;11.616;2023-08-17T01:04:58;22.00;99.90
4904;DHT22;2467;48.142;11.616;2023-08-17T01:05:31;22.00;99.90
4904;DHT22;2467;48.142;11.616;2023-08-17T01:06:04;22.00;99.90
4904;DHT22;2467;48.142;11.616;2023-08-17T01:06:36;22.10;99.90
4904;DHT22;2467;48.142;11.616;2023-08-17T01:07:09;22.10;99.90
4904;DHT22;2467;48.142;11.616;2023-08-17T01:07:41;22.10;99.90
4904;DHT22;2467;48.142;11.616;2023-08-17T01:08:13;22.10;99.90
4904;DHT22;2467;48.142;11.616;2023-08-17T01:08:46;22.10;99.90
4904;DHT22;2467;48.142;11.616;2023-08-17T01:09:18;22.10;99.90
4904;DHT22;2467;48.142;11.616;2023-08-17T01:09:50;22.10;99.90
4904;DHT22;2467;48.142;11.616;2023-08-17T01:10:22;22.10;99.90
4904;DHT22;2467;48.142;11.616;2023-08-17T01:10:59;22.10;99.90
4904;DHT22;2467;48.142;11.616;2023-08-17T01:11:37;22.10;99.90
4904;DHT22;2467;48.142;11.616;2023-08-17T01:12:19;22.10;99.90
4904;DHT22;2467;48.142;11.616;2023-08-17T01:13:00;22.10;99.90
4904;DHT22;2467;48.142;11.616;2023-08-17T01:13:38;22.10;99.90
4904;DHT22;2467;48.142;11.616;2023-08-17T01:14:19;22.00;99.90
4904;DHT22;2467;48.142;11.616;2023-08-17T01:15:04;22.00;99.90
4904;DHT22;2467;48.142;11.616;2023-08-17T01:15:40;22.00;99.90
4904;DHT22;2467;48.142;11.616;2023-08-17T01:16:19;21.90;99.90
4904;DHT22;2467;48.142;11.616;2023-08-17T01:16:56;22.00;99.90
4904;DHT22;2467;48.142;11.616;2023-08-17T01:17:34;21.90;99.90
4904;DHT22;2467;48.142;11.616;2023-08-17T01:18:21;21.90;99.90
4904;DHT22;2467;48.142;11.616;2023-08-17T01:18:57;21.90;99.90
4904;DHT22;2467;48.142;11.616;2023-08-17T01:19:30;21.90;99.90
4904;DHT22;2467;48.142;11.616;2023-08-17T01:20:03;21.90;99.90
4904;DHT22;2467;48.142;11.616;2023-08-17T01:20:37;22.00;99.90
4904;DHT22;2467;48.142;11.616;2023-08-17T01:21:10;22.00;99.90
4904;DHT22;2467;48.142;11.616;2023-08-17T01:21:49;22.00;99.90
4904;DHT22;2467;48.142;11.616;2023-08-17T01:22:23;22.00;99.90
4904;DHT22;2467;48.142;11.616;2023-08-17T01:22:56;22.00;99.90
4904;DHT22;2467;48.142;11.616;2023-08-17T01:23:31;22.10;99.90
4904;DHT22;2467;48.142;11.616;2023-08-17T01:24:03;22.10;99.90
4904;DHT22;2467;48.142;11.616;2023-08-17T01:24:36;22.10;99.90
4904;DHT22;2467;48.142;11.616;2023-08-17T01:25:08;22.10;99.90
4904;DHT22;2467;48.142;11.616;2023-08-17T01:25:40;22.10;99.90
4904;DHT22;2467;48.142;11.616;2023-08-17T01:26:12;22.10;99.90
4904;DHT22;2467;48.142;11.616;2023-08-17T01:26:47;22.20;99.90
4904;DHT22;2467;48.142;11.616;2023-08-17T01:27:18;22.20;99.90
4904;DHT22;2467;48.142;11.616;2023-08-17T01:27:50;22.20;99.90
4904;DHT22;2467;48.142;11.616;2023-08-17T01:28:22;22.20;99.90
4904;DHT22;2467;48.142;11.616;2023-08-17T01:28:55;22.20;99.90
4904;DHT22;2467;48.142;11.616;2023-08-17T01:29:27;22.20;99.90
4904;DHT22;2467;48.142;11.616;2023-08-17T01:29:59;22.20;99.90
4904;DHT22;2467;48.142;11.616;2023-08-17T01:30:36;22.20;99.90
4904;DHT22;2467;48.142;11.616;2023-08-17T01:31:14;22.20;99.90
4904;DHT22;2467;48.142;11.616;2023-08-17T01:31:54;22.20;99.90
4904;DHT22;2467;48.142;11.616;2023-08-17T01:32:30;22.20;99.90
4904;DHT22;2467;48.142;11.616;2023-08-17T01:33:07;22.20;99.90
4904;DHT22;2467;48.142;11.616;2023-08-17T01:33:43;22.20;99.90
4904;DHT22;2467;48.142;11.616;2023-08-17T01:34:19;22.10;99.90
4904;DHT22;2467;48.142;11.616;2023-08-17T01:34:58;22.10;99.90
4904;DHT22;2467;48.142;11.616;2023-08-17T01:35:38;22.10;99.90
4904;DHT22;2467;48.142;11.616;2023-08-17T01:36:22;22.10;99.90
4904;DHT22;2467;48.142;11.616;2023-08-17T01:37:00;22.10;99.90
4904;DHT22;2467;48.142;11.616;2023-08-17T01:37:36;22.00;99.90
4904;DHT22;2467;48.142;11.616;2023-08-17T01:38:12;22.00;99.90
4904;DHT22;2467;48.142;11.616;2023-08-17T01:38:50;22.00;99.90
4904;DHT22;2467;48.142;11.616;2023-08-17T01:39:27;22.00;99.90
4904;DHT22;2467;48.142;11.616;2023-08-17T01:39:59;22.00;99.90
4904;DHT22;2467;48.142;11.616;2023-08-17T01:40:33;22.00;99.90
4904;DHT22;2467;48.142;11.616;2023-08-17T01:41:06;22.10;99.90
4904;DHT22;2467;48.142;11.616;2023-08-17T01:41:41;22.10;99.90
4904;DHT22;2467;48.142;11.616;2023-08-17T01:42:15;22.10;99.90
4904;DHT22;2467;48.142;11.616;2023-08-17T01:42:49;22.10;99.90
4904;DHT22;2467;48.142;11.616;2023-08-17T01:43:22;22.10;99.90
4904;DHT22;2467;48.142;11.616;2023-08-17T01:43:55;22.20;99.90
4904;DHT22;2467;48.142;11.616;2023-08-17T01:44:28;22.10;99.90
4904;DHT22;2467;48.142;11.616;2023-08-17T01:45:00;22.10;99.90
4904;DHT22;2467;48.142;11.616;2023-08-17T01:45:32;22.10;99.90
4904;DHT22;2467;48.142;11.616;2023-08-17T01:46:04;22.10;99.90
4904;DHT22;2467;48.142;11.616;2023-08-17T01:46:37;22.00;99.90
4904;DHT22;2467;48.142;11.616;2023-08-17T01:47:09;22.00;99.90
4904;DHT22;2467;48.142;11.616;2023-08-17T01:47:43;22.00;99.90
4904;DHT22;2467;48.142;11.616;2023-08-17T01:48:14;22.00;99.90
4904;DHT22;2467;48.142;11.616;2023-08-17T01:48:47;21.90;99.90
4904;DHT22;2467;48.142;11.616;2023-08-17T01:49:19;21.80;99.90
4904;DHT22;2467;48.142;11.616;2023-08-17T01:49:51;21.80;99.90
4904;DHT22;2467;48.142;11.616;2023-08-17T01:50:24;21.80;99.90
4904;DHT22;2467;48.142;11.616;2023-08-17T01:50:56;21.80;99.90
4904;DHT22;2467;48.142;11.616;2023-08-17T01:51:28;21.80;99.90
4904;DHT22;2467;48.142;11.616;2023-08-17T01:52:00;21.70;99.90
4904;DHT22;2467;48.142;11.616;2023-08-17T01:52:34;21.70;99.90
4904;DHT22;2467;48.142;11.616;2023-08-17T01:53:06;21.80;99.90
4904;DHT22;2467;48.142;11.616;2023-08-17T01:53:38;21.80;99.90
4904;DHT22;2467;48.142;11.616;2023-08-17T01:54:11;21.80;99.90
4904;DHT22;2467;48.142;11.616;2023-08-17T01:54:44;21.70;99.90
4904;DHT22;2467;48.142;11.616;2023-08-17T01:55:16;21.80;99.90
4904;DHT22;2467;48.142;11.616;2023-08-17T01:55:48;21.80;99.90
4904;DHT22;2467;48.142;11.616;2023-08-17T01:56:21;21.80;99.90
4904;DHT22;2467;48.142;11.616;2023-08-17T01:56:54;21.80;99.90
4904;DHT22;2467;48.142;11.616;2023-08-17T01:57:26;21.80;99.90
4904;DHT22;2467;48.142;11.616;2023-08-17T01:57:58;21.80;99.90
4904;DHT22;2467;48.142;11.616;2023-08-17T01:58:30;21.90;99.90
4904;DHT22;2467;48.142;11.616;2023-08-17T01:59:02;21.90;99.90
4904;DHT22;2467;48.142;11.616;2023-08-17T01:59:35;21.90;99.90
4904;DHT22;2467;48.142;11.616;2023-08-17T02:00:08;21.90;99.90
4904;DHT22;2467;48.142;11.616;2023-08-17T02:00:42;21.90;99.90
4904;DHT22;2467;48.142;11.616;2023-08-17T02:01:15;22.00;99.90
4904;DHT22;2467;48.142;11.616;2023-08-17T02:01:47;22.00;99.90
4904;DHT22;2467;48.142;11.616;2023-08-17T02:02:18;22.00;99.90
4904;DHT22;2467;48.142;11.616;2023-08-17T02:02:50;22.00;99.90
4904;DHT22;2467;48.142;11.616;2023-08-17T02:03:23;22.00;99.90
4904;DHT22;2467;48.142;11.616;2023-08-17T02:03:55;22.00;99.90
4904;DHT22;2467;48.142;11.616;2023-08-17T02:04:27;21.90;99.90
4904;DHT22;2467;48.142;11.616;2023-08-17T02:05:00;22.00;99.90
4904;DHT22;2467;48.142;11.616;2023-08-17T02:05:32;21.90;99.90
4904;DHT22;2467;48.142;11.616;2023-08-17T02:06:04;22.00;99.90
4904;DHT22;2467;48.142;11.616;2023-08-17T02:06:35;22.00;99.90
4904;DHT22;2467;48.142;11.616;2023-08-17T02:07:08;22.00;99.90
4904;DHT22;2467;48.142;11.616;2023-08-17T02:07:40;22.00;99.90
4904;DHT22;2467;48.142;11.616;2023-08-17T02:08:12;21.90;99.90
4904;DHT22;2467;48.142;11.616;2023-08-17T02:08:44;22.00;99.90
4904;DHT22;2467;48.142;11.616;2023-08-17T02:09:19;22.00;99.90
4904;DHT22;2467;48.142;11.616;2023-08-17T02:09:51;22.00;99.90
4904;DHT22;2467;48.142;11.616;2023-08-17T02:10:22;22.00;99.90
4904;DHT22;2467;48.142;11.616;2023-08-17T02:10:54;21.90;99.90
4904;DHT22;2467;48.142;11.616;2023-08-17T02:11:27;22.00;99.90
4904;DHT22;2467;48.142;11.616;2023-08-17T02:11:59;21.90;99.90
4904;DHT22;2467;48.142;11.616;2023-08-17T02:12:31;21.90;99.90
4904;DHT22;2467;48.142;11.616;2023-08-17T02:13:04;21.90;99.90
4904;DHT22;2467;48.142;11.616;2023-08-17T02:13:48;21.80;99.90
4904;DHT22;2467;48.142;11.616;2023-08-17T02:14:20;21.80;99.90
4904;DHT22;2467;48.142;11.616;2023-08-17T02:14:52;21.80;99.90
4904;DHT22;2467;48.142;11.616;2023-08-17T02:15:25;21.80;99.90
4904;DHT22;2467;48.142;11.616;2023-08-17T02:15:57;21.70;99.90
4904;DHT22;2467;48.142;11.616;2023-08-17T02:16:29;21.80;99.90
4904;DHT22;2467;48.142;11.616;2023-08-17T02:17:01;21.80;99.90
4904;DHT22;2467;48.142;11.616;2023-08-17T02:17:34;21.70;99.90
4904;DHT22;2467;48.142;11.616;2023-08-17T02:18:06;21.70;99.90
4904;DHT22;2467;48.142;11.616;2023-08-17T02:18:38;21.70;99.90
4904;DHT22;2467;48.142;11.616;2023-08-17T02:19:11;21.70;99.90
4904;DHT22;2467;48.142;11.616;2023-08-17T02:19:43;21.70;99.90
4904;DHT22;2467;48.142;11.616;2023-08-17T02:20:15;21.70;99.90
4904;DHT22;2467;48.142;11.616;2023-08-17T02:20:48;21.70;99.90
4904;DHT22;2467;48.142;11.616;2023-08-17T02:21:19;21.70;99.90
4904;DHT22;2467;48.142;11.616;2023-08-17T02:21:51;21.60;99.90
4904;DHT22;2467;48.142;11.616;2023-08-17T02:22:24;21.60;99.90
4904;DHT22;2467;48.142;11.616;2023-08-17T02:22:56;21.60;99.90
4904;DHT22;2467;48.142;11.616;2023-08-17T02:23:28;21.60;99.90
4904;DHT22;2467;48.142;11.616;2023-08-17T02:24:01;21.60;99.90
4904;DHT22;2467;48.142;11.616;2023-08-17T02:24:34;21.60;99.90
4904;DHT22;2467;48.142;11.616;2023-08-17T02:25:07;21.60;99.90
4904;DHT22;2467;48.142;11.616;2023-08-17T02:25:39;21.60;99.90
4904;DHT22;2467;48.142;11.616;2023-08-17T02:26:12;21.60;99.90
4904;DHT22;2467;48.142;11.616;2023-08-17T02:26:44;21.60;99.90
4904;DHT22;2467;48.142;11.616;2023-08-17T02:27:16;21.60;99.90
4904;DHT22;2467;48.142;11.616;2023-08-17T02:27:48;21.60;99.90
4904;DHT22;2467;48.142;11.616;2023-08-17T02:28:21;21.50;99.90
4904;DHT22;2467;48.142;11.616;2023-08-17T02:28:53;21.60;99.90
4904;DHT22;2467;48.142;11.616;2023-08-17T02:29:25;21.70;99.90
4904;DHT22;2467;48.142;11.616;2023-08-17T02:29:57;21.60;99.90
4904;DHT22;2467;48.142;11.616;2023-08-17T02:30:30;21.60;99.90
4904;DHT22;2467;48.142;11.616;2023-08-17T02:31:02;21.60;99.90
4904;DHT22;2467;48.142;11.616;2023-08-17T02:31:34;21.60;99.90
4904;DHT22;2467;48.142;11.616;2023-08-17T02:32:06;21.60;99.90
4904;DHT22;2467;48.142;11.616;2023-08-17T02:32:38;21.50;99.90
4904;DHT22;2467;48.142;11.616;2023-08-17T02:33:10;21.50;99.90
4904;DHT22;2467;48.142;11.616;2023-08-17T02:33:42;21.50;99.90
4904;DHT22;2467;48.142;11.616;2023-08-17T02:34:14;21.50;99.90
4904;DHT22;2467;48.142;11.616;2023-08-17T02:34:47;21.50;99.90
4904;DHT22;2467;48.142;11.616;2023-08-17T02:35:19;21.50;99.90
4904;DHT22;2467;48.142;11.616;2023-08-17T02:35:51;21.50;99.90
4904;DHT22;2467;48.142;11.616;2023-08-17T02:36:23;21.50;99.90
4904;DHT22;2467;48.142;11.616;2023-08-17T02:36:56;21.50;99.90
4904;DHT22;2467;48.142;11.616;2023-08-17T02:37:28;21.50;99.90
4904;DHT22;2467;48.142;11.616;2023-08-17T02:38:00;21.50;99.90
4904;DHT22;2467;48.142;11.616;2023-08-17T02:38:32;21.50;99.90
4904;DHT22;2467;48.142;11.616;2023-08-17T02:39:05;21.50;99.90
4904;DHT22;2467;48.142;11.616;2023-08-17T02:39:39;21.50;99.90
4904;DHT22;2467;48.142;11.616;2023-08-17T02:40:11;21.50;99.90
4904;DHT22;2467;48.142;11.616;2023-08-17T02:40:43;21.50;99.90
4904;DHT22;2467;48.142;11.616;2023-08-17T02:41:16;21.50;99.90
4904;DHT22;2467;48.142;11.616;2023-08-17T02:41:47;21.50;99.90
4904;DHT22;2467;48.142;11.616;2023-08-17T02:42:21;21.50;99.90
4904;DHT22;2467;48.142;11.616;2023-08-17T02:42:53;21.50;99.90
4904;DHT22;2467;48.142;11.616;2023-08-17T02:43:25;21.50;99.90
4904;DHT22;2467;48.142;11.616;2023-08-17T02:43:57;21.50;99.90
4904;DHT22;2467;48.142;11.616;2023-08-17T02:44:29;21.50;99.90
4904;DHT22;2467;48.142;11.616;2023-08-17T02:45:02;21.50;99.90
4904;DHT22;2467;48.142;11.616;2023-08-17T02:45:34;21.50;99.90
4904;DHT22;2467;48.142;11.616;2023-08-17T02:46:06;21.50;99.90
4904;DHT22;2467;48.142;11.616;2023-08-17T02:46:39;21.50;99.90
4904;DHT22;2467;48.142;11.616;2023-08-17T02:47:12;21.50;99.90
4904;DHT22;2467;48.142;11.616;2023-08-17T02:47:43;21.50;99.90
4904;DHT22;2467;48.142;11.616;2023-08-17T02:48:15;21.50;99.90
4904;DHT22;2467;48.142;11.616;2023-08-17T02:48:48;21.50;99.90
4904;DHT22;2467;48.142;11.616;2023-08-17T02:49:21;21.50;99.90
4904;DHT22;2467;48.142;11.616;2023-08-17T02:49:53;21.50;99.90
4904;DHT22;2467;48.142;11.616;2023-08-17T02:50:25;21.40;99.90
4904;DHT22;2467;48.142;11.616;2023-08-17T02:50:58;21.40;99.90
4904;DHT22;2467;48.142;11.616;2023-08-17T02:51:30;21.40;99.90
4904;DHT22;2467;48.142;11.616;2023-08-17T02:52:02;21.40;99.90
4904;DHT22;2467;48.142;11.616;2023-08-17T02:52:33;21.40;99.90
4904;DHT22;2467;48.142;11.616;2023-08-17T02:53:05;21.40;99.90
4904;DHT22;2467;48.142;11.616;2023-08-17T02:53:38;21.40;99.90
4904;DHT22;2467;48.142;11.616;2023-08-17T02:54:10;21.30;99.90
4904;DHT22;2467;48.142;11.616;2023-08-17T02:54:43;21.30;99.90
4904;DHT22;2467;48.142;11.616;2023-08-17T02:55:15;21.30;99.90
4904;DHT22;2467;48.142;11.616;2023-08-17T02:55:48;21.30;99.90
4904;DHT22;2467;48.142;11.616;2023-08-17T02:56:20;21.30;99.90
4904;DHT22;2467;48.142;11.616;2023-08-17T02:56:52;21.30;99.90
4904;DHT22;2467;48.142;11.616;2023-08-17T02:57:24;21.30;99.90
4904;DHT22;2467;48.142;11.616;2023-08-17T02:57:57;21.30;99.90
4904;DHT22;2467;48.142;11.616;2023-08-17T02:58:29;21.30;99.90
4904;DHT22;2467;48.142;11.616;2023-08-17T02:59:01;21.30;99.90
4904;DHT22;2467;48.142;11.616;2023-08-17T02:59:33;21.30;99.90
4904;DHT22;2467;48.142;11.616;2023-08-17T03:00:07;21.20;99.90
4904;DHT22;2467;48.142;11.616;2023-08-17T03:00:39;21.30;99.90
4904;DHT22;2467;48.142;11.616;2023-08-17T03:01:11;21.30;99.90
4904;DHT22;2467;48.142;11.616;2023-08-17T03:01:45;21.30;99.90
4904;DHT22;2467;48.142;11.616;2023-08-17T03:02:18;21.30;99.90
4904;DHT22;2467;48.142;11.616;2023-08-17T03:02:50;21.20;99.90
4904;DHT22;2467;48.142;11.616;2023-08-17T03:03:21;21.20;99.90
4904;DHT22;2467;48.142;11.616;2023-08-17T03:03:54;21.20;99.90
4904;DHT22;2467;48.142;11.616;2023-08-17T03:04:26;21.20;99.90
4904;DHT22;2467;48.142;11.616;2023-08-17T03:04:58;21.20;99.90
4904;DHT22;2467;48.142;11.616;2023-08-17T03:05:30;21.20;99.90
4904;DHT22;2467;48.142;11.616;2023-08-17T03:06:02;21.20;99.90
4904;DHT22;2467;48.142;11.616;2023-08-17T03:06:35;21.20;99.90
4904;DHT22;2467;48.142;11.616;2023-08-17T03:07:07;21.20;99.90
4904;DHT22;2467;48.142;11.616;2023-08-17T03:07:39;21.20;99.90
4904;DHT22;2467;48.142;11.616;2023-08-17T03:08:12;21.20;99.90
4904;DHT22;2467;48.142;11.616;2023-08-17T03:08:44;21.20;99.90
4904;DHT22;2467;48.142;11.616;2023-08-17T03:09:16;21.30;99.90
4904;DHT22;2467;48.142;11.616;2023-08-17T03:09:49;21.30;99.90
4904;DHT22;2467;48.142;11.616;2023-08-17T03:10:21;21.30;99.90
4904;DHT22;2467;48.142;11.616;2023-08-17T03:10:56;21.30;99.90
4904;DHT22;2467;48.142;11.616;2023-08-17T03:11:28;21.30;99.90
4904;DHT22;2467;48.142;11.616;2023-08-17T03:12:00;21.30;99.90
4904;DHT22;2467;48.142;11.616;2023-08-17T03:12:32;21.30;99.90
4904;DHT22;2467;48.142;11.616;2023-08-17T03:13:05;21.30;99.90
4904;DHT22;2467;48.142;11.616;2023-08-17T03:13:36;21.30;99.90
4904;DHT22;2467;48.142;11.616;2023-08-17T03:14:08;21.30;99.90
4904;DHT22;2467;48.142;11.616;2023-08-17T03:14:40;21.30;99.90
4904;DHT22;2467;48.142;11.616;2023-08-17T03:15:13;21.30;99.90
4904;DHT22;2467;48.142;11.616;2023-08-17T03:15:45;21.40;99.90
4904;DHT22;2467;48.142;11.616;2023-08-17T03:16:17;21.30;99.90
4904;DHT22;2467;48.142;11.616;2023-08-17T03:16:49;21.30;99.90
4904;DHT22;2467;48.142;11.616;2023-08-17T03:17:21;21.30;99.90
4904;DHT22;2467;48.142;11.616;2023-08-17T03:17:55;21.30;99.90
4904;DHT22;2467;48.142;11.616;2023-08-17T03:18:27;21.30;99.90
4904;DHT22;2467;48.142;11.616;2023-08-17T03:18:59;21.30;99.90
4904;DHT22;2467;48.142;11.616;2023-08-17T03:19:32;21.20;99.90
4904;DHT22;2467;48.142;11.616;2023-08-17T03:20:04;21.30;99.90
4904;DHT22;2467;48.142;11.616;2023-08-17T03:20:38;21.30;99.90
4904;DHT22;2467;48.142;11.616;2023-08-17T03:21:10;21.30;99.90
4904;DHT22;2467;48.142;11.616;2023-08-17T03:21:42;21.20;99.90
4904;DHT22;2467;48.142;11.616;2023-08-17T03:22:14;21.20;99.90
4904;DHT22;2467;48.142;11.616;2023-08-17T03:22:46;21.20;99.90
4904;DHT22;2467;48.142;11.616;2023-08-17T03:23:18;21.20;99.90
4904;DHT22;2467;48.142;11.616;2023-08-17T03:23:52;21.30;99.90
4904;DHT22;2467;48.142;11.616;2023-08-17T03:24:24;21.30;99.90
4904;DHT22;2467;48.142;11.616;2023-08-17T03:24:57;21.30;99.90
4904;DHT22;2467;48.142;11.616;2023-08-17T03:25:30;21.30;99.90
4904;DHT22;2467;48.142;11.616;2023-08-17T03:26:02;21.30;99.90
4904;DHT22;2467;48.142;11.616;2023-08-17T03:26:34;21.30;99.90
4904;DHT22;2467;48.142;11.616;2023-08-17T03:27:07;21.20;99.90
4904;DHT22;2467;48.142;11.616;2023-08-17T03:27:38;21.20;99.90
4904;DHT22;2467;48.142;11.616;2023-08-17T03:28:11;21.10;99.90
4904;DHT22;2467;48.142;11.616;2023-08-17T03:28:44;21.10;99.90
4904;DHT22;2467;48.142;11.616;2023-08-17T03:29:16;21.10;99.90
4904;DHT22;2467;48.142;11.616;2023-08-17T03:29:48;21.10;99.90
4904;DHT22;2467;48.142;11.616;2023-08-17T03:30:20;21.10;99.90
4904;DHT22;2467;48.142;11.616;2023-08-17T03:30:55;21.10;99.90
4904;DHT22;2467;48.142;11.616;2023-08-17T03:31:27;21.10;99.90